sensor_id;sensor_type;location;lat;lon;timestamp;temperature;humidity
42755;DHT22;28407;51.830;5.684;2023-05-02T00:01:46;15.50;67.90
42755;DHT22;28407;51.830;5.684;2023-05-02T00:03:46;15.50;67.90
42755;DHT22;28407;51.830;5.684;2023-05-02T00:05:47;15.50;67.90
42755;DHT22;28407;51.830;5.684;2023-05-02T00:07:48;15.50;67.90
42755;DHT22;28407;51.830;5.684;2023-05-02T00:09:48;15.50;68.00
42755;DHT22;28407;51.830;5.684;2023-05-02T00:11:49;15.50;68.00
42755;DHT22;28407;51.830;5.684;2023-05-02T00:13:50;15.50;68.10
42755;DHT22;28407;51.830;5.684;2023-05-02T00:15:51;15.40;68.10
42755;DHT22;28407;51.830;5.684;2023-05-02T00:17:51;15.40;68.10
42755;DHT22;28407;51.830;5.684;2023-05-02T00:19:52;15.50;68.20
42755;DHT22;28407;51.830;5.684;2023-05-02T00:21:53;15.40;68.10
42755;DHT22;28407;51.830;5.684;2023-05-02T00:23:54;15.40;68.10
42755;DHT22;28407;51.830;5.684;2023-05-02T00:25:56;15.40;68.10
42755;DHT22;28407;51.830;5.684;2023-05-02T00:27:57;15.40;68.10
42755;DHT22;28407;51.830;5.684;2023-05-02T00:29:57;15.40;68.10
42755;DHT22;28407;51.830;5.684;2023-05-02T00:31:59;15.40;68.20
42755;DHT22;28407;51.830;5.684;2023-05-02T00:34:01;15.40;68.30
42755;DHT22;28407;51.830;5.684;2023-05-02T00:36:01;15.30;68.30
42755;DHT22;28407;51.830;5.684;2023-05-02T00:38:02;15.30;68.30
42755;DHT22;28407;51.830;5.684;2023-05-02T00:40:03;15.30;68.40
42755;DHT22;28407;51.830;5.684;2023-05-02T00:42:04;15.30;68.50
42755;DHT22;28407;51.830;5.684;2023-05-02T00:44:05;15.30;68.40
42755;DHT22;28407;51.830;5.684;2023-05-02T00:46:06;15.30;68.40
42755;DHT22;28407;51.830;5.684;2023-05-02T00:48:08;15.30;68.40
42755;DHT22;28407;51.830;5.684;2023-05-02T00:50:09;15.20;68.40
42755;DHT22;28407;51.830;5.684;2023-05-02T00:52:10;15.30;68.40
42755;DHT22;28407;51.830;5.684;2023-05-02T00:54:12;15.20;68.30
42755;DHT22;28407;51.830;5.684;2023-05-02T00:56:13;15.20;69.00
42755;DHT22;28407;51.830;5.684;2023-05-02T00:58:15;15.20;68.30
42755;DHT22;28407;51.830;5.684;2023-05-02T01:00:16;15.20;68.30
42755;DHT22;28407;51.830;5.684;2023-05-02T01:04:43;15.20;68.40
42755;DHT22;28407;51.830;5.684;2023-05-02T01:06:58;15.20;68.40
42755;DHT22;28407;51.830;5.684;2023-05-02T01:11:16;15.20;68.40
42755;DHT22;28407;51.830;5.684;2023-05-02T01:13:32;15.10;68.30
42755;DHT22;28407;51.830;5.684;2023-05-02T01:15:34;15.10;68.40
42755;DHT22;28407;51.830;5.684;2023-05-02T01:17:36;15.20;68.40
42755;DHT22;28407;51.830;5.684;2023-05-02T01:19:50;15.10;68.40
42755;DHT22;28407;51.830;5.684;2023-05-02T01:21:52;15.10;68.50
42755;DHT22;28407;51.830;5.684;2023-05-02T01:24:13;15.10;68.50
42755;DHT22;28407;51.830;5.684;2023-05-02T01:26:29;15.10;68.60
42755;DHT22;28407;51.830;5.684;2023-05-02T01:28:47;15.10;68.60
42755;DHT22;28407;51.830;5.684;2023-05-02T01:30:49;15.10;68.60
42755;DHT22;28407;51.830;5.684;2023-05-02T01:32:53;15.10;68.60
42755;DHT22;28407;51.830;5.684;2023-05-02T01:34:55;15.10;68.70
42755;DHT22;28407;51.830;5.684;2023-05-02T01:36:57;15.10;68.70
42755;DHT22;28407;51.830;5.684;2023-05-02T01:39:01;15.10;68.70
42755;DHT22;28407;51.830;5.684;2023-05-02T01:41:03;15.10;68.80
42755;DHT22;28407;51.830;5.684;2023-05-02T01:43:07;15.10;68.90
42755;DHT22;28407;51.830;5.684;2023-05-02T01:45:08;15.10;68.90
42755;DHT22;28407;51.830;5.684;2023-05-02T01:47:11;15.10;68.90
42755;DHT22;28407;51.830;5.684;2023-05-02T01:49:12;15.00;68.80
42755;DHT22;28407;51.830;5.684;2023-05-02T01:51:17;15.00;68.90
42755;DHT22;28407;51.830;5.684;2023-05-02T01:53:18;15.00;68.90
42755;DHT22;28407;51.830;5.684;2023-05-02T01:55:23;15.00;69.60
42755;DHT22;28407;51.830;5.684;2023-05-02T01:57:25;15.00;69.00
42755;DHT22;28407;51.830;5.684;2023-05-02T01:59:27;15.00;69.10
42755;DHT22;28407;51.830;5.684;2023-05-02T02:01:29;15.00;69.00
42755;DHT22;28407;51.830;5.684;2023-05-02T02:03:30;15.00;69.10
42755;DHT22;28407;51.830;5.684;2023-05-02T02:05:33;15.00;69.10
42755;DHT22;28407;51.830;5.684;2023-05-02T02:07:34;15.10;69.20
42755;DHT22;28407;51.830;5.684;2023-05-02T02:09:35;15.00;69.20
42755;DHT22;28407;51.830;5.684;2023-05-02T02:11:43;15.00;69.20
42755;DHT22;28407;51.830;5.684;2023-05-02T02:13:48;15.00;69.30
42755;DHT22;28407;51.830;5.684;2023-05-02T02:15:52;15.00;69.30
42755;DHT22;28407;51.830;5.684;2023-05-02T02:18:03;15.00;69.30
42755;DHT22;28407;51.830;5.684;2023-05-02T02:20:07;15.00;69.40
42755;DHT22;28407;51.830;5.684;2023-05-02T02:22:09;15.00;69.40
42755;DHT22;28407;51.830;5.684;2023-05-02T02:24:11;15.00;69.50
42755;DHT22;28407;51.830;5.684;2023-05-02T02:26:13;15.00;69.50
42755;DHT22;28407;51.830;5.684;2023-05-02T02:28:16;15.00;69.50
42755;DHT22;28407;51.830;5.684;2023-05-02T02:30:16;15.00;69.60
42755;DHT22;28407;51.830;5.684;2023-05-02T02:32:17;15.00;70.30
42755;DHT22;28407;51.830;5.684;2023-05-02T02:34:18;15.00;69.70
42755;DHT22;28407;51.830;5.684;2023-05-02T02:36:47;15.00;69.80
42755;DHT22;28407;51.830;5.684;2023-05-02T02:41:24;14.90;69.90
42755;DHT22;28407;51.830;5.684;2023-05-02T02:43:35;14.90;69.90
42755;DHT22;28407;51.830;5.684;2023-05-02T02:50:15;14.80;70.40
42755;DHT22;28407;51.830;5.684;2023-05-02T02:52:30;14.80;70.40
42755;DHT22;28407;51.830;5.684;2023-05-02T02:54:46;14.80;70.50
42755;DHT22;28407;51.830;5.684;2023-05-02T02:56:57;14.80;70.60
42755;DHT22;28407;51.830;5.684;2023-05-02T02:59:18;14.70;70.60
42755;DHT22;28407;51.830;5.684;2023-05-02T03:01:21;14.70;70.60
42755;DHT22;28407;51.830;5.684;2023-05-02T03:03:21;14.70;70.60
42755;DHT22;28407;51.830;5.684;2023-05-02T03:05:28;14.70;70.60
42755;DHT22;28407;51.830;5.684;2023-05-02T03:07:30;14.70;70.60
42755;DHT22;28407;51.830;5.684;2023-05-02T03:09:42;14.60;70.60
42755;DHT22;28407;51.830;5.684;2023-05-02T03:11:46;14.60;70.60
42755;DHT22;28407;51.830;5.684;2023-05-02T03:13:47;14.60;70.60
42755;DHT22;28407;51.830;5.684;2023-05-02T03:17:58;14.60;70.60
42755;DHT22;28407;51.830;5.684;2023-05-02T03:19:59;14.60;70.60
42755;DHT22;28407;51.830;5.684;2023-05-02T03:22:00;14.60;70.60
42755;DHT22;28407;51.830;5.684;2023-05-02T03:24:02;14.60;70.60
42755;DHT22;28407;51.830;5.684;2023-05-02T03:26:03;14.60;70.60
42755;DHT22;28407;51.830;5.684;2023-05-02T03:28:04;14.60;70.60
42755;DHT22;28407;51.830;5.684;2023-05-02T03:30:06;14.60;70.50
42755;DHT22;28407;51.830;5.684;2023-05-02T03:32:07;14.60;70.50
42755;DHT22;28407;51.830;5.684;2023-05-02T03:34:09;14.50;70.40
42755;DHT22;28407;51.830;5.684;2023-05-02T03:36:11;14.60;70.50
42755;DHT22;28407;51.830;5.684;2023-05-02T03:38:13;14.60;70.40
42755;DHT22;28407;51.830;5.684;2023-05-02T03:40:14;14.50;70.30
42755;DHT22;28407;51.830;5.684;2023-05-02T03:42:15;14.50;70.30
42755;DHT22;28407;51.830;5.684;2023-05-02T03:44:16;14.50;70.30
42755;DHT22;28407;51.830;5.684;2023-05-02T03:46:16;14.50;70.20
42755;DHT22;28407;51.830;5.684;2023-05-02T03:48:18;14.50;70.80
42755;DHT22;28407;51.830;5.684;2023-05-02T03:50:19;14.50;70.20
42755;DHT22;28407;51.830;5.684;2023-05-02T03:52:22;14.50;70.10
42755;DHT22;28407;51.830;5.684;2023-05-02T03:54:24;14.40;69.90
42755;DHT22;28407;51.830;5.684;2023-05-02T03:56:25;14.40;69.90
42755;DHT22;28407;51.830;5.684;2023-05-02T03:58:36;14.40;70.50
42755;DHT22;28407;51.830;5.684;2023-05-02T04:00:38;14.40;69.70
42755;DHT22;28407;51.830;5.684;2023-05-02T04:02:41;14.40;69.70
42755;DHT22;28407;51.830;5.684;2023-05-02T04:04:45;14.40;69.60
42755;DHT22;28407;51.830;5.684;2023-05-02T04:06:48;14.40;69.50
42755;DHT22;28407;51.830;5.684;2023-05-02T04:08:50;14.40;69.50
42755;DHT22;28407;51.830;5.684;2023-05-02T04:10:51;14.30;69.40
42755;DHT22;28407;51.830;5.684;2023-05-02T04:12:52;14.30;69.30
42755;DHT22;28407;51.830;5.684;2023-05-02T04:14:54;14.30;69.20
42755;DHT22;28407;51.830;5.684;2023-05-02T04:16:59;14.30;69.20
42755;DHT22;28407;51.830;5.684;2023-05-02T04:19:22;14.30;69.20
42755;DHT22;28407;51.830;5.684;2023-05-02T04:21:23;14.20;69.10
42755;DHT22;28407;51.830;5.684;2023-05-02T04:23:24;14.20;69.10
42755;DHT22;28407;51.830;5.684;2023-05-02T04:25:29;14.20;69.10
42755;DHT22;28407;51.830;5.684;2023-05-02T04:27:33;14.20;69.10
42755;DHT22;28407;51.830;5.684;2023-05-02T04:29:34;14.20;69.00
42755;DHT22;28407;51.830;5.684;2023-05-02T04:31:36;14.20;69.00
42755;DHT22;28407;51.830;5.684;2023-05-02T04:33:37;14.20;69.00
42755;DHT22;28407;51.830;5.684;2023-05-02T04:35:39;14.10;68.90
42755;DHT22;28407;51.830;5.684;2023-05-02T04:37:41;14.10;68.80
42755;DHT22;28407;51.830;5.684;2023-05-02T04:39:41;14.10;68.80
42755;DHT22;28407;51.830;5.684;2023-05-02T04:41:48;14.10;68.80
42755;DHT22;28407;51.830;5.684;2023-05-02T04:43:49;14.10;68.70
42755;DHT22;28407;51.830;5.684;2023-05-02T04:45:50;14.10;68.70
42755;DHT22;28407;51.830;5.684;2023-05-02T04:47:58;14.10;68.70
42755;DHT22;28407;51.830;5.684;2023-05-02T04:49:58;14.10;68.70
42755;DHT22;28407;51.830;5.684;2023-05-02T04:51:59;14.10;68.60
42755;DHT22;28407;51.830;5.684;2023-05-02T04:54:00;14.10;68.60
42755;DHT22;28407;51.830;5.684;2023-05-02T04:56:01;14.10;68.60
42755;DHT22;28407;51.830;5.684;2023-05-02T04:58:03;14.10;68.60
42755;DHT22;28407;51.830;5.684;2023-05-02T05:00:05;14.10;68.60
42755;DHT22;28407;51.830;5.684;2023-05-02T05:02:06;14.10;68.60
42755;DHT22;28407;51.830;5.684;2023-05-02T05:04:07;14.10;68.60
42755;DHT22;28407;51.830;5.684;2023-05-02T05:06:08;14.10;68.50
42755;DHT22;28407;51.830;5.684;2023-05-02T05:08:08;14.10;68.60
42755;DHT22;28407;51.830;5.684;2023-05-02T05:10:11;14.10;68.60
42755;DHT22;28407;51.830;5.684;2023-05-02T05:12:17;14.00;68.50
42755;DHT22;28407;51.830;5.684;2023-05-02T05:14:19;14.10;68.60
42755;DHT22;28407;51.830;5.684;2023-05-02T05:16:23;14.10;68.50
42755;DHT22;28407;51.830;5.684;2023-05-02T05:18:25;14.00;68.40
42755;DHT22;28407;51.830;5.684;2023-05-02T05:20:26;14.10;68.40
42755;DHT22;28407;51.830;5.684;2023-05-02T05:22:31;14.00;68.30
42755;DHT22;28407;51.830;5.684;2023-05-02T05:24:37;14.00;68.30
42755;DHT22;28407;51.830;5.684;2023-05-02T05:26:38;14.00;68.30
42755;DHT22;28407;51.830;5.684;2023-05-02T05:28:39;14.00;68.20
42755;DHT22;28407;51.830;5.684;2023-05-02T05:30:40;14.00;68.20
42755;DHT22;28407;51.830;5.684;2023-05-02T05:32:44;14.10;68.20
42755;DHT22;28407;51.830;5.684;2023-05-02T05:34:44;14.00;68.10
42755;DHT22;28407;51.830;5.684;2023-05-02T05:36:46;14.10;68.10
42755;DHT22;28407;51.830;5.684;2023-05-02T05:38:47;14.10;68.00
42755;DHT22;28407;51.830;5.684;2023-05-02T05:40:50;14.10;68.00
42755;DHT22;28407;51.830;5.684;2023-05-02T05:42:51;14.10;67.90
42755;DHT22;28407;51.830;5.684;2023-05-02T05:44:58;14.10;67.90
42755;DHT22;28407;51.830;5.684;2023-05-02T05:47:00;14.10;67.90
42755;DHT22;28407;51.830;5.684;2023-05-02T05:49:01;14.10;67.80
42755;DHT22;28407;51.830;5.684;2023-05-02T05:51:04;14.00;67.80
42755;DHT22;28407;51.830;5.684;2023-05-02T05:53:05;14.00;67.80
42755;DHT22;28407;51.830;5.684;2023-05-02T05:55:07;14.00;67.80
42755;DHT22;28407;51.830;5.684;2023-05-02T05:57:08;14.00;67.70
42755;DHT22;28407;51.830;5.684;2023-05-02T05:59:10;14.00;67.70
42755;DHT22;28407;51.830;5.684;2023-05-02T06:01:11;14.00;67.60
42755;DHT22;28407;51.830;5.684;2023-05-02T06:03:12;14.00;67.60
42755;DHT22;28407;51.830;5.684;2023-05-02T06:05:13;14.00;67.40
42755;DHT22;28407;51.830;5.684;2023-05-02T06:07:16;14.00;67.30
42755;DHT22;28407;51.830;5.684;2023-05-02T06:09:18;13.90;67.30
42755;DHT22;28407;51.830;5.684;2023-05-02T06:11:19;13.90;67.00
42755;DHT22;28407;51.830;5.684;2023-05-02T06:13:20;13.90;66.70
42755;DHT22;28407;51.830;5.684;2023-05-02T06:15:21;13.90;66.60
42755;DHT22;28407;51.830;5.684;2023-05-02T06:17:22;13.80;66.30
42755;DHT22;28407;51.830;5.684;2023-05-02T06:19:23;13.80;66.30
42755;DHT22;28407;51.830;5.684;2023-05-02T06:21:24;13.80;66.20
42755;DHT22;28407;51.830;5.684;2023-05-02T06:23:24;13.90;66.00
42755;DHT22;28407;51.830;5.684;2023-05-02T06:25:25;13.90;65.90
42755;DHT22;28407;51.830;5.684;2023-05-02T06:27:26;13.90;65.70
42755;DHT22;28407;51.830;5.684;2023-05-02T06:29:26;13.90;65.60
42755;DHT22;28407;51.830;5.684;2023-05-02T06:31:27;13.90;65.40
42755;DHT22;28407;51.830;5.684;2023-05-02T06:33:28;14.00;65.30
42755;DHT22;28407;51.830;5.684;2023-05-02T06:35:29;14.00;65.20
42755;DHT22;28407;51.830;5.684;2023-05-02T06:37:33;14.00;65.00
42755;DHT22;28407;51.830;5.684;2023-05-02T06:39:34;14.00;64.80
42755;DHT22;28407;51.830;5.684;2023-05-02T06:41:36;14.00;64.90
42755;DHT22;28407;51.830;5.684;2023-05-02T06:43:36;14.00;64.80
42755;DHT22;28407;51.830;5.684;2023-05-02T06:45:38;14.00;64.80
42755;DHT22;28407;51.830;5.684;2023-05-02T06:47:38;14.10;64.80
42755;DHT22;28407;51.830;5.684;2023-05-02T06:49:39;14.10;64.70
42755;DHT22;28407;51.830;5.684;2023-05-02T06:51:39;14.10;64.70
42755;DHT22;28407;51.830;5.684;2023-05-02T06:53:40;14.10;64.70
42755;DHT22;28407;51.830;5.684;2023-05-02T06:55:41;14.10;64.60
42755;DHT22;28407;51.830;5.684;2023-05-02T06:57:41;14.20;64.60
42755;DHT22;28407;51.830;5.684;2023-05-02T06:59:43;14.20;64.60
42755;DHT22;28407;51.830;5.684;2023-05-02T07:01:43;14.20;64.40
42755;DHT22;28407;51.830;5.684;2023-05-02T07:03:45;14.20;64.40
42755;DHT22;28407;51.830;5.684;2023-05-02T07:05:46;14.20;64.30
42755;DHT22;28407;51.830;5.684;2023-05-02T07:07:46;14.30;64.40
42755;DHT22;28407;51.830;5.684;2023-05-02T07:09:47;14.30;64.40
42755;DHT22;28407;51.830;5.684;2023-05-02T07:11:48;14.30;64.30
42755;DHT22;28407;51.830;5.684;2023-05-02T07:13:49;14.30;64.20
42755;DHT22;28407;51.830;5.684;2023-05-02T07:15:49;14.30;64.10
42755;DHT22;28407;51.830;5.684;2023-05-02T07:17:50;14.30;64.00
42755;DHT22;28407;51.830;5.684;2023-05-02T07:19:51;14.30;63.90
42755;DHT22;28407;51.830;5.684;2023-05-02T07:21:52;14.40;63.90
42755;DHT22;28407;51.830;5.684;2023-05-02T07:23:52;14.30;63.60
42755;DHT22;28407;51.830;5.684;2023-05-02T07:25:54;14.30;63.50
42755;DHT22;28407;51.830;5.684;2023-05-02T07:27:55;14.40;63.50
42755;DHT22;28407;51.830;5.684;2023-05-02T07:29:56;14.40;63.40
42755;DHT22;28407;51.830;5.684;2023-05-02T07:31:56;14.40;63.20
42755;DHT22;28407;51.830;5.684;2023-05-02T07:33:57;14.40;63.10
42755;DHT22;28407;51.830;5.684;2023-05-02T07:35:57;14.50;63.10
42755;DHT22;28407;51.830;5.684;2023-05-02T07:37:58;14.50;62.90
42755;DHT22;28407;51.830;5.684;2023-05-02T07:39:58;14.50;62.60
42755;DHT22;28407;51.830;5.684;2023-05-02T07:41:59;14.50;62.50
42755;DHT22;28407;51.830;5.684;2023-05-02T07:43:59;14.50;62.40
42755;DHT22;28407;51.830;5.684;2023-05-02T07:46:04;14.50;62.20
42755;DHT22;28407;51.830;5.684;2023-05-02T07:48:05;14.60;62.10
42755;DHT22;28407;51.830;5.684;2023-05-02T07:50:06;14.50;61.80
42755;DHT22;28407;51.830;5.684;2023-05-02T07:52:08;14.60;61.80
42755;DHT22;28407;51.830;5.684;2023-05-02T07:54:15;14.50;61.60
42755;DHT22;28407;51.830;5.684;2023-05-02T07:56:16;14.50;61.70
42755;DHT22;28407;51.830;5.684;2023-05-02T07:58:17;14.50;61.60
42755;DHT22;28407;51.830;5.684;2023-05-02T08:00:17;14.60;61.40
42755;DHT22;28407;51.830;5.684;2023-05-02T08:02:18;14.60;61.20
42755;DHT22;28407;51.830;5.684;2023-05-02T08:04:20;14.70;60.90
42755;DHT22;28407;51.830;5.684;2023-05-02T08:06:20;14.70;60.80
42755;DHT22;28407;51.830;5.684;2023-05-02T08:08:22;14.70;60.60
42755;DHT22;28407;51.830;5.684;2023-05-02T08:10:22;14.70;61.20
42755;DHT22;28407;51.830;5.684;2023-05-02T08:12:23;14.80;60.40
42755;DHT22;28407;51.830;5.684;2023-05-02T08:14:24;14.80;60.20
42755;DHT22;28407;51.830;5.684;2023-05-02T08:16:24;14.80;60.10
42755;DHT22;28407;51.830;5.684;2023-05-02T08:18:25;14.80;60.00
42755;DHT22;28407;51.830;5.684;2023-05-02T08:20:26;14.80;59.90
42755;DHT22;28407;51.830;5.684;2023-05-02T08:22:27;14.80;59.80
42755;DHT22;28407;51.830;5.684;2023-05-02T08:24:27;14.80;59.80
42755;DHT22;28407;51.830;5.684;2023-05-02T08:26:28;14.90;59.80
42755;DHT22;28407;51.830;5.684;2023-05-02T08:28:29;14.90;59.80
42755;DHT22;28407;51.830;5.684;2023-05-02T08:30:30;14.90;59.70
42755;DHT22;28407;51.830;5.684;2023-05-02T08:32:31;14.90;59.70
42755;DHT22;28407;51.830;5.684;2023-05-02T08:34:32;14.90;59.60
42755;DHT22;28407;51.830;5.684;2023-05-02T08:36:33;14.90;59.50
42755;DHT22;28407;51.830;5.684;2023-05-02T08:38:33;14.90;59.50
42755;DHT22;28407;51.830;5.684;2023-05-02T08:40:35;15.00;59.50
42755;DHT22;28407;51.830;5.684;2023-05-02T08:42:41;15.00;59.30
42755;DHT22;28407;51.830;5.684;2023-05-02T08:44:42;15.00;59.20
42755;DHT22;28407;51.830;5.684;2023-05-02T08:46:42;15.00;59.20
42755;DHT22;28407;51.830;5.684;2023-05-02T08:48:45;15.00;59.10
42755;DHT22;28407;51.830;5.684;2023-05-02T08:50:47;15.00;59.10
42755;DHT22;28407;51.830;5.684;2023-05-02T08:52:50;15.00;59.00
42755;DHT22;28407;51.830;5.684;2023-05-02T08:54:51;15.00;58.90
42755;DHT22;28407;51.830;5.684;2023-05-02T08:56:53;15.00;58.80
42755;DHT22;28407;51.830;5.684;2023-05-02T08:58:54;15.00;58.80
42755;DHT22;28407;51.830;5.684;2023-05-02T09:00:55;15.00;58.80
42755;DHT22;28407;51.830;5.684;2023-05-02T09:03:26;15.00;58.70
42755;DHT22;28407;51.830;5.684;2023-05-02T09:05:30;15.10;58.50
42755;DHT22;28407;51.830;5.684;2023-05-02T09:07:44;15.10;58.30
42755;DHT22;28407;51.830;5.684;2023-05-02T09:09:45;15.20;58.20
42755;DHT22;28407;51.830;5.684;2023-05-02T09:11:46;15.20;58.00
42755;DHT22;28407;51.830;5.684;2023-05-02T09:13:49;15.20;58.00
42755;DHT22;28407;51.830;5.684;2023-05-02T09:16:00;15.30;57.90
42755;DHT22;28407;51.830;5.684;2023-05-02T09:18:01;15.20;57.80
42755;DHT22;28407;51.830;5.684;2023-05-02T09:20:02;15.30;57.70
42755;DHT22;28407;51.830;5.684;2023-05-02T09:22:04;15.30;57.50
42755;DHT22;28407;51.830;5.684;2023-05-02T09:24:18;15.30;57.30
42755;DHT22;28407;51.830;5.684;2023-05-02T09:26:19;15.30;57.00
42755;DHT22;28407;51.830;5.684;2023-05-02T09:28:37;15.40;57.00
42755;DHT22;28407;51.830;5.684;2023-05-02T09:30:38;15.40;56.70
42755;DHT22;28407;51.830;5.684;2023-05-02T09:32:46;15.50;56.60
42755;DHT22;28407;51.830;5.684;2023-05-02T09:35:05;15.50;56.20
42755;DHT22;28407;51.830;5.684;2023-05-02T09:37:06;15.60;56.00
42755;DHT22;28407;51.830;5.684;2023-05-02T09:39:10;15.60;56.10
42755;DHT22;28407;51.830;5.684;2023-05-02T09:41:11;15.60;56.10
42755;DHT22;28407;51.830;5.684;2023-05-02T09:43:14;15.60;56.00
42755;DHT22;28407;51.830;5.684;2023-05-02T09:45:20;15.70;55.90
42755;DHT22;28407;51.830;5.684;2023-05-02T09:47:24;15.70;55.90
42755;DHT22;28407;51.830;5.684;2023-05-02T09:49:42;15.80;55.90
42755;DHT22;28407;51.830;5.684;2023-05-02T09:51:45;15.80;56.40
42755;DHT22;28407;51.830;5.684;2023-05-02T09:53:46;15.90;55.90
42755;DHT22;28407;51.830;5.684;2023-05-02T09:55:47;15.90;55.90
42755;DHT22;28407;51.830;5.684;2023-05-02T09:57:48;15.90;55.80
42755;DHT22;28407;51.830;5.684;2023-05-02T09:59:56;16.00;55.70
42755;DHT22;28407;51.830;5.684;2023-05-02T10:01:58;16.00;56.20
42755;DHT22;28407;51.830;5.684;2023-05-02T10:03:59;16.00;55.50
42755;DHT22;28407;51.830;5.684;2023-05-02T10:06:00;16.00;55.50
42755;DHT22;28407;51.830;5.684;2023-05-02T10:08:06;16.00;55.50
42755;DHT22;28407;51.830;5.684;2023-05-02T10:10:10;16.00;55.40
42755;DHT22;28407;51.830;5.684;2023-05-02T10:12:14;16.00;55.40
42755;DHT22;28407;51.830;5.684;2023-05-02T10:14:15;16.00;55.30
42755;DHT22;28407;51.830;5.684;2023-05-02T10:16:22;16.10;55.20
42755;DHT22;28407;51.830;5.684;2023-05-02T10:18:51;16.10;55.20
42755;DHT22;28407;51.830;5.684;2023-05-02T10:20:58;16.10;54.90
42755;DHT22;28407;51.830;5.684;2023-05-02T10:23:00;16.20;54.70
42755;DHT22;28407;51.830;5.684;2023-05-02T10:25:01;16.30;54.40
42755;DHT22;28407;51.830;5.684;2023-05-02T10:27:03;16.30;54.40
42755;DHT22;28407;51.830;5.684;2023-05-02T10:29:04;16.30;54.40
42755;DHT22;28407;51.830;5.684;2023-05-02T10:31:09;16.40;54.10
42755;DHT22;28407;51.830;5.684;2023-05-02T10:33:12;16.50;53.80
42755;DHT22;28407;51.830;5.684;2023-05-02T10:35:15;16.50;53.50
42755;DHT22;28407;51.830;5.684;2023-05-02T10:37:16;16.60;53.20
42755;DHT22;28407;51.830;5.684;2023-05-02T10:39:18;16.60;53.10
42755;DHT22;28407;51.830;5.684;2023-05-02T10:41:26;16.70;53.00
42755;DHT22;28407;51.830;5.684;2023-05-02T10:43:32;16.70;52.90
42755;DHT22;28407;51.830;5.684;2023-05-02T10:45:34;16.70;52.70
42755;DHT22;28407;51.830;5.684;2023-05-02T10:47:36;16.80;52.60
42755;DHT22;28407;51.830;5.684;2023-05-02T10:49:55;16.90;52.50
42755;DHT22;28407;51.830;5.684;2023-05-02T10:51:56;16.90;52.10
42755;DHT22;28407;51.830;5.684;2023-05-02T10:54:19;17.00;52.00
42755;DHT22;28407;51.830;5.684;2023-05-02T10:56:20;17.10;51.50
42755;DHT22;28407;51.830;5.684;2023-05-02T10:58:21;17.30;51.40
42755;DHT22;28407;51.830;5.684;2023-05-02T11:00:24;17.30;51.10
42755;DHT22;28407;51.830;5.684;2023-05-02T11:05:04;17.50;50.80
42755;DHT22;28407;51.830;5.684;2023-05-02T11:11:55;17.70;50.30
42755;DHT22;28407;51.830;5.684;2023-05-02T11:13:54;17.80;50.10
42755;DHT22;28407;51.830;5.684;2023-05-02T11:15:55;17.80;50.10
42755;DHT22;28407;51.830;5.684;2023-05-02T11:18:03;17.80;49.80
42755;DHT22;28407;51.830;5.684;2023-05-02T11:24:36;17.90;49.20
42755;DHT22;28407;51.830;5.684;2023-05-02T11:26:37;18.10;49.00
42755;DHT22;28407;51.830;5.684;2023-05-02T11:28:41;18.10;49.00
42755;DHT22;28407;51.830;5.684;2023-05-02T11:30:44;18.20;49.00
42755;DHT22;28407;51.830;5.684;2023-05-02T11:34:48;18.20;48.80
42755;DHT22;28407;51.830;5.684;2023-05-02T11:36:52;18.30;48.80
42755;DHT22;28407;51.830;5.684;2023-05-02T11:38:52;18.30;48.70
42755;DHT22;28407;51.830;5.684;2023-05-02T11:40:55;18.30;48.60
42755;DHT22;28407;51.830;5.684;2023-05-02T11:42:58;18.40;48.50
42755;DHT22;28407;51.830;5.684;2023-05-02T11:44:59;18.50;48.10
42755;DHT22;28407;51.830;5.684;2023-05-02T11:47:01;18.60;48.00
42755;DHT22;28407;51.830;5.684;2023-05-02T11:49:02;18.70;47.90
42755;DHT22;28407;51.830;5.684;2023-05-02T11:51:03;18.80;47.90
42755;DHT22;28407;51.830;5.684;2023-05-02T11:53:13;18.90;47.80
42755;DHT22;28407;51.830;5.684;2023-05-02T11:55:14;19.00;47.40
42755;DHT22;28407;51.830;5.684;2023-05-02T11:57:15;19.10;47.10
42755;DHT22;28407;51.830;5.684;2023-05-02T11:59:16;19.20;47.00
42755;DHT22;28407;51.830;5.684;2023-05-02T12:01:18;19.20;46.80
42755;DHT22;28407;51.830;5.684;2023-05-02T12:03:30;19.30;46.70
42755;DHT22;28407;51.830;5.684;2023-05-02T12:05:31;19.40;46.60
42755;DHT22;28407;51.830;5.684;2023-05-02T12:09:50;19.50;46.30
42755;DHT22;28407;51.830;5.684;2023-05-02T12:11:52;19.50;46.20
42755;DHT22;28407;51.830;5.684;2023-05-02T12:13:54;19.60;46.10
42755;DHT22;28407;51.830;5.684;2023-05-02T12:15:55;19.60;46.00
42755;DHT22;28407;51.830;5.684;2023-05-02T12:17:56;19.60;46.00
42755;DHT22;28407;51.830;5.684;2023-05-02T12:19:57;19.70;45.90
42755;DHT22;28407;51.830;5.684;2023-05-02T12:21:58;19.70;45.80
42755;DHT22;28407;51.830;5.684;2023-05-02T12:24:02;19.80;45.70
42755;DHT22;28407;51.830;5.684;2023-05-02T12:28:17;20.10;45.10
42755;DHT22;28407;51.830;5.684;2023-05-02T12:30:28;20.10;45.10
42755;DHT22;28407;51.830;5.684;2023-05-02T12:32:31;20.10;45.40
42755;DHT22;28407;51.830;5.684;2023-05-02T12:34:35;20.20;44.80
42755;DHT22;28407;51.830;5.684;2023-05-02T12:36:42;20.20;44.70
42755;DHT22;28407;51.830;5.684;2023-05-02T12:38:48;20.40;44.50
42755;DHT22;28407;51.830;5.684;2023-05-02T12:40:53;20.40;44.30
42755;DHT22;28407;51.830;5.684;2023-05-02T12:43:01;20.50;44.20
42755;DHT22;28407;51.830;5.684;2023-05-02T12:45:03;20.60;44.10
42755;DHT22;28407;51.830;5.684;2023-05-02T12:47:04;20.70;43.90
42755;DHT22;28407;51.830;5.684;2023-05-02T12:49:06;20.80;43.80
42755;DHT22;28407;51.830;5.684;2023-05-02T12:51:20;20.90;43.70
42755;DHT22;28407;51.830;5.684;2023-05-02T12:53:38;21.00;43.40
42755;DHT22;28407;51.830;5.684;2023-05-02T12:55:40;21.20;43.10
42755;DHT22;28407;51.830;5.684;2023-05-02T12:57:40;21.20;43.10
42755;DHT22;28407;51.830;5.684;2023-05-02T12:59:41;21.30;42.90
42755;DHT22;28407;51.830;5.684;2023-05-02T13:01:42;21.30;42.90
42755;DHT22;28407;51.830;5.684;2023-05-02T13:03:43;21.40;42.80
42755;DHT22;28407;51.830;5.684;2023-05-02T13:05:44;21.50;42.70
42755;DHT22;28407;51.830;5.684;2023-05-02T13:07:45;21.50;42.70
42755;DHT22;28407;51.830;5.684;2023-05-02T13:09:46;21.50;42.40
42755;DHT22;28407;51.830;5.684;2023-05-02T13:11:47;21.50;42.20
42755;DHT22;28407;51.830;5.684;2023-05-02T13:13:48;21.50;42.20
42755;DHT22;28407;51.830;5.684;2023-05-02T13:15:49;21.60;42.20
42755;DHT22;28407;51.830;5.684;2023-05-02T13:17:50;21.60;42.10
42755;DHT22;28407;51.830;5.684;2023-05-02T13:19:51;21.70;42.10
42755;DHT22;28407;51.830;5.684;2023-05-02T13:21:52;21.70;42.00
42755;DHT22;28407;51.830;5.684;2023-05-02T13:23:52;21.80;41.70
42755;DHT22;28407;51.830;5.684;2023-05-02T13:25:54;21.80;41.40
42755;DHT22;28407;51.830;5.684;2023-05-02T13:27:55;21.80;41.20
42755;DHT22;28407;51.830;5.684;2023-05-02T13:29:56;21.80;41.10